Time;durP1;ratioP1;P1;durP2;ratioP2;P2;SDS_P1;SDS_P2;PMS_P1;PMS_P2;Temp;Humidity;BMP_temperature;BMP_pressure;BME280_temperature;BME280_humidity;BME280_pressure;Samples;Min_cycle;Max_cycle;Signal;HPM_P1;HPM_P2
2022/06/28 00:01:51;;;;;;;6.10;1.00;;;;;;;-146.64;100.00;117598.47;4992673;28;20504;-77
2022/06/28 00:04:18;;;;;;;6.25;1.45;;;;;;;-146.64;100.00;118399.94;4994463;28;20124;-76
2022/06/28 00:06:43;;;;;;;4.00;0.90;;;;;;;-146.64;100.00;118402.03;4990425;28;20105;-77
2022/06/28 00:09:12;;;;;;;4.37;1.60;;;;;;;-146.64;100.00;118402.03;4992905;28;20085;-76
2022/06/28 00:11:38;;;;;;;4.82;1.23;;;;;;;-146.64;100.00;118402.03;5000257;28;20520;-77
2022/06/28 00:16:04;;;;;;;5.40;1.15;;;;;;;-146.64;100.00;118402.03;4996353;28;20043;-78
2022/06/28 00:16:49;;;;;;;6.28;1.73;;;;;;;-146.64;100.00;118402.03;5005552;28;20481;-76
2022/06/28 00:19:15;;;;;;;7.13;1.20;;;;;;;-146.64;100.00;118402.03;5009258;28;20026;-78
2022/06/28 00:21:40;;;;;;;11.83;2.00;;;;;;;-146.64;100.00;118402.03;4993511;28;20031;-77
2022/06/28 00:24:05;;;;;;;7.47;1.67;;;;;;;-146.64;100.00;118402.03;5003221;28;20041;-78
2022/06/28 00:26:31;;;;;;;4.57;1.37;;;;;;;-146.64;100.00;118402.03;5009094;28;20038;-76
2022/06/28 00:28:56;;;;;;;8.67;1.53;;;;;;;-146.64;100.00;118402.03;5005640;28;20029;-76
2022/06/28 00:31:25;;;;;;;3.57;1.83;;;;;;;-146.64;100.00;118402.03;5009609;28;20477;-78
2022/06/28 00:33:50;;;;;;;4.57;1.17;;;;;;;-146.64;100.00;118402.03;4993851;28;20450;-77
2022/06/28 00:36:15;;;;;;;8.70;1.50;;;;;;;-146.64;100.00;118402.03;5003793;28;20033;-78
2022/06/28 00:38:42;;;;;;;3.70;1.00;;;;;;;-146.64;100.00;118402.03;5003205;28;20112;-78
2022/06/28 00:41:08;;;;;;;5.07;1.23;;;;;;;-146.64;100.00;118402.03;4991549;28;20108;-76
2022/06/28 00:43:35;;;;;;;4.97;1.00;;;;;;;-146.64;100.00;118402.03;4982211;28;20076;-76
2022/06/28 00:46:02;;;;;;;5.28;1.25;;;;;;;-146.64;100.00;118402.03;4993265;28;20030;-77
2022/06/28 00:48:28;;;;;;;5.22;1.52;;;;;;;-146.64;100.00;118402.03;4989725;28;20045;-77
2022/06/28 00:50:56;;;;;;;8.55;1.60;;;;;;;-146.64;100.00;118402.03;5002722;28;20401;-77
2022/06/28 00:53:21;;;;;;;6.03;1.30;;;;;;;-146.64;100.00;118402.03;4993093;28;20504;-77
2022/06/28 00:55:47;;;;;;;10.20;1.47;;;;;;;-146.64;100.00;118402.03;5007977;28;20038;-78
2022/06/28 00:58:14;;;;;;;7.32;1.55;;;;;;;-146.64;100.00;118402.03;4993124;28;20045;-77
2022/06/28 01:00:45;;;;;;;3.10;0.90;;;;;;;-146.64;100.00;118402.03;4993878;28;20033;-76
2022/06/28 01:03:15;;;;;;;12.02;2.33;;;;;;;-146.64;100.00;118402.03;5007565;28;20026;-77
2022/06/28 01:05:42;;;;;;;3.72;1.25;;;;;;;-146.64;100.00;118402.03;4989446;28;20038;-76
2022/06/28 01:08:08;;;;;;;6.43;1.25;;;;;;;-146.64;100.00;118402.03;4992517;28;20092;-75
2022/06/28 01:10:35;;;;;;;9.70;2.15;;;;;;;-146.64;100.00;118402.03;4979403;28;20030;-76
2022/06/28 01:13:00;;;;;;;7.45;1.38;;;;;;;-146.64;100.00;118402.03;5009140;28;20038;-76
2022/06/28 01:15:26;;;;;;;5.33;1.20;;;;;;;-146.64;100.00;118402.03;4990339;28;20045;-75
2022/06/28 01:17:53;;;;;;;6.17;1.30;;;;;;;-146.64;100.00;118402.03;5000368;28;20468;-76
2022/06/28 01:20:20;;;;;;;7.50;1.25;;;;;;;-146.64;100.00;118402.03;5006190;28;20509;-76
2022/06/28 01:22:45;;;;;;;9.93;1.55;;;;;;;-146.64;100.00;118402.03;4991396;28;20041;-75
2022/06/28 01:25:11;;;;;;;12.13;1.70;;;;;;;-146.64;100.00;118399.94;5004028;28;20409;-77
2022/06/28 01:27:37;;;;;;;6.68;1.13;;;;;;;-146.64;100.00;118132.78;5006126;28;20049;-76
2022/06/28 01:30:07;;;;;;;1.67;0.83;;;;;;;-146.64;100.00;117598.47;5001533;28;20481;-76
2022/06/28 01:32:33;;;;;;;10.88;1.35;;;;;;;-146.64;100.00;117865.63;4999976;28;20064;-76
2022/06/28 01:35:02;;;;;;;6.00;1.10;;;;;;;-146.64;100.00;117598.47;5004855;28;20489;-76
2022/06/28 01:37:28;;;;;;;6.68;1.23;;;;;;;-146.64;100.00;115996.03;4989009;28;20045;-77
2022/06/28 01:39:54;;;;;;;7.97;1.97;;;;;;;-146.64;100.00;116530.09;5008131;28;20452;-76
2022/06/28 01:42:19;;;;;;;9.80;1.10;;;;;;;-146.64;100.00;116530.09;5009391;28;20077;-78
2022/06/28 01:44:45;;;;;;;8.93;1.63;;;;;;;-146.64;100.00;117331.34;5006151;28;20033;-76
2022/06/28 01:47:11;;;;;;;10.97;1.93;;;;;;;-146.64;100.00;116797.16;4990298;28;20635;-75
2022/06/28 01:49:36;;;;;;;8.50;1.67;;;;;;;-146.64;100.00;116530.09;4988352;28;20034;-76
2022/06/28 01:52:02;;;;;;;5.00;1.30;;;;;;;-146.64;100.00;116263.06;4989296;28;20128;-74
2022/06/28 01:54:27;;;;;;;4.90;1.40;;;;;;;-146.64;100.00;116530.09;5000579;28;20505;-75
2022/06/28 01:56:53;;;;;;;3.97;1.00;;;;;;;-146.64;100.00;117331.34;5002467;28;20116;-76
2022/06/28 01:59:18;;;;;;;6.07;1.33;;;;;;;-146.64;100.00;117331.34;4988850;28;20030;-77
2022/06/28 02:01:43;;;;;;;6.33;1.50;;;;;;;-146.64;100.00;118399.94;4983761;28;20365;-76
2022/06/28 02:04:18;;;;;;;4.83;1.30;;;;;;;-146.64;100.00;118399.94;5003933;28;20065;-75
2022/06/28 02:06:44;;;;;;;7.55;1.30;;;;;;;-146.64;100.00;118399.94;4990536;28;20151;-75
2022/06/28 02:09:09;;;;;;;8.67;1.17;;;;;;;-146.64;100.00;118402.03;5003700;28;20449;-75
2022/06/28 02:11:35;;;;;;;13.37;2.07;;;;;;;-146.64;100.00;118402.03;5008002;28;20037;-75
2022/06/28 02:14:01;;;;;;;5.50;1.00;;;;;;;-146.64;100.00;118402.03;5007982;28;20041;-76
2022/06/28 02:16:26;;;;;;;4.80;1.30;;;;;;;-146.64;100.00;118402.03;5007050;28;20038;-76
2022/06/28 02:18:51;;;;;;;6.17;1.17;;;;;;;-146.64;100.00;118402.03;4990803;28;20470;-76
2022/06/28 02:21:17;;;;;;;8.83;1.33;;;;;;;-146.64;100.00;118402.03;5005075;28;20042;-76
2022/06/28 02:23:42;;;;;;;3.70;1.20;;;;;;;-146.64;100.00;118402.03;5007785;28;20469;-75
2022/06/28 02:26:11;;;;;;;5.77;1.07;;;;;;;-146.64;100.00;118402.03;5003830;28;20033;-75
2022/06/28 02:28:39;;;;;;;13.93;1.38;;;;;;;-146.64;100.00;118402.03;4998515;28;20022;-75
2022/06/28 02:31:15;;;;;;;5.05;1.23;;;;;;;-146.64;100.00;118402.03;4983497;28;20022;-75
2022/06/28 02:33:41;;;;;;;5.90;1.15;;;;;;;-146.64;100.00;118402.03;5006847;28;20478;-76
2022/06/28 02:40:21;;;;;;;5.60;1.58;;;;;;;-146.64;100.00;118402.03;5008296;28;20519;-76
2022/06/28 02:41:55;;;;;;;9.27;1.73;;;;;;;-146.64;100.00;118402.03;5003651;28;20034;-75
2022/06/28 02:44:21;;;;;;;7.82;1.48;;;;;;;-146.64;100.00;118402.03;5006669;28;20030;-76
2022/06/28 02:46:47;;;;;;;5.87;1.73;;;;;;;-146.64;100.00;118402.03;4996550;28;20382;-76
2022/06/28 02:49:13;;;;;;;12.97;2.30;;;;;;;-146.64;100.00;118402.03;4986043;28;20026;-77
2022/06/28 02:51:42;;;;;;;12.20;2.00;;;;;;;-146.64;100.00;118402.03;5008031;28;20026;-75
2022/06/28 02:54:08;;;;;;;7.82;2.53;;;;;;;-146.64;100.00;118402.03;4991656;28;20038;-76
2022/06/28 02:56:33;;;;;;;6.10;1.87;;;;;;;-146.64;100.00;118402.03;5002687;28;20052;-75
2022/06/28 02:58:59;;;;;;;10.10;1.70;;;;;;;-146.64;100.00;118402.03;5004473;28;20560;-75
2022/06/28 03:01:24;;;;;;;15.33;1.60;;;;;;;-146.64;100.00;118402.03;5003697;28;20132;-77
2022/06/28 03:03:50;;;;;;;9.10;1.43;;;;;;;-146.64;100.00;118402.03;5010599;28;20432;-75
2022/06/28 03:06:15;;;;;;;8.63;1.93;;;;;;;-146.64;100.00;118402.03;4992643;28;20037;-76
2022/06/28 03:08:40;;;;;;;6.73;1.63;;;;;;;-146.64;100.00;118402.03;4993144;28;20041;-75
2022/06/28 03:11:05;;;;;;;8.70;2.40;;;;;;;-146.64;100.00;118402.03;5009538;28;20101;-75
2022/06/28 03:13:31;;;;;;;8.10;2.00;;;;;;;-146.64;100.00;118402.03;4990774;28;20099;-76
2022/06/28 03:15:56;;;;;;;11.50;1.80;;;;;;;-146.64;100.00;118402.03;4991693;28;20029;-77
2022/06/28 03:18:22;;;;;;;14.33;2.33;;;;;;;-146.64;100.00;118402.03;5007941;28;20401;-77
2022/06/28 03:20:47;;;;;;;12.90;2.37;;;;;;;-146.64;100.00;118402.03;5010827;28;20036;-75
2022/06/28 03:23:12;;;;;;;12.33;2.37;;;;;;;-146.64;100.00;118402.03;5001470;28;20029;-77
2022/06/28 03:25:38;;;;;;;9.20;1.67;;;;;;;-146.64;100.00;118402.03;4992153;28;20058;-75
2022/06/28 03:28:04;;;;;;;7.93;1.43;;;;;;;-146.64;100.00;118402.03;5007517;28;20172;-76
2022/06/28 03:30:30;;;;;;;9.47;2.10;;;;;;;-146.64;100.00;118402.03;4993182;28;20488;-77
2022/06/28 03:32:56;;;;;;;7.97;1.60;;;;;;;-146.64;100.00;118402.03;4986472;28;20461;-75
2022/06/28 03:35:21;;;;;;;14.13;1.90;;;;;;;-146.64;100.00;118402.03;5009929;28;20165;-75
2022/06/28 03:37:46;;;;;;;16.30;1.90;;;;;;;-146.64;100.00;118402.03;4995606;28;20573;-75
2022/06/28 03:40:12;;;;;;;11.23;2.13;;;;;;;-146.64;100.00;118402.03;4998036;28;20397;-75
2022/06/28 03:42:37;;;;;;;13.00;2.07;;;;;;;-146.64;100.00;118402.03;4992950;28;20129;-75
2022/06/28 03:45:03;;;;;;;11.27;2.10;;;;;;;-146.64;100.00;118402.03;5009710;28;20030;-75
2022/06/28 03:47:29;;;;;;;16.13;2.47;;;;;;;-146.64;100.00;118402.03;4995043;28;20034;-75
2022/06/28 03:49:54;;;;;;;14.33;2.47;;;;;;;-146.64;100.00;118402.03;4992641;28;20036;-75
2022/06/28 03:52:28;;;;;;;12.53;3.10;;;;;;;-146.64;100.00;118402.03;5009461;28;20053;-76
2022/06/28 03:54:54;;;;;;;17.65;3.25;;;;;;;-146.64;100.00;118402.03;5009675;28;20478;-76
2022/06/28 03:57:20;;;;;;;13.95;2.13;;;;;;;-146.64;100.00;118402.03;5006673;28;20099;-77
2022/06/28 03:59:45;;;;;;;12.23;2.87;;;;;;;-146.64;100.00;118402.03;4978152;28;20485;-75
2022/06/28 04:02:10;;;;;;;13.87;2.80;;;;;;;-146.64;100.00;118402.03;4991591;28;20038;-77
2022/06/28 04:04:36;;;;;;;9.73;2.37;;;;;;;-146.64;100.00;118402.03;4998109;28;20105;-76
2022/06/28 04:07:01;;;;;;;12.50;2.43;;;;;;;-146.64;100.00;118402.03;4990556;28;20133;-77
2022/06/28 04:09:26;;;;;;;16.43;3.97;;;;;;;-146.64;100.00;118402.03;4990802;28;20108;-75
2022/06/28 04:11:52;;;;;;;15.20;2.50;;;;;;;-146.64;100.00;118402.03;5000948;28;20063;-76
2022/06/28 04:14:17;;;;;;;15.20;3.00;;;;;;;-146.64;100.00;118402.03;4978742;28;20022;-77
2022/06/28 04:16:42;;;;;;;15.57;2.77;;;;;;;-146.64;100.00;118402.03;5008503;28;20041;-76
2022/06/28 04:19:09;;;;;;;10.00;2.67;;;;;;;-146.64;100.00;118402.03;4993390;28;20389;-75
2022/06/28 04:21:34;;;;;;;14.05;2.88;;;;;;;-146.64;100.00;118402.03;5009310;28;20088;-77
2022/06/28 04:24:00;;;;;;;17.37;2.80;;;;;;;-146.64;100.00;118402.03;4988424;28;20034;-75
2022/06/28 04:26:25;;;;;;;14.77;3.43;;;;;;;-146.64;100.00;118402.03;4997793;28;20033;-76
2022/06/28 04:28:50;;;;;;;9.77;2.27;;;;;;;-146.64;100.00;118402.03;5009089;28;20034;-76
2022/06/28 04:31:16;;;;;;;23.27;3.20;;;;;;;-146.64;100.00;118402.03;5003899;28;20033;-75
2022/06/28 04:33:42;;;;;;;17.92;3.33;;;;;;;-146.64;100.00;118402.03;4988861;28;20156;-76
2022/06/28 04:36:08;;;;;;;18.13;3.27;;;;;;;-146.64;100.00;118402.03;4987925;28;20144;-76
2022/06/28 04:38:33;;;;;;;16.50;3.70;;;;;;;-146.64;100.00;118402.03;4989354;28;20026;-76
2022/06/28 04:40:59;;;;;;;21.67;3.17;;;;;;;-146.64;100.00;118402.03;4976571;28;20026;-75
2022/06/28 04:43:24;;;;;;;21.53;3.23;;;;;;;-146.64;100.00;118402.03;4999550;28;20034;-75
2022/06/28 04:45:50;;;;;;;17.50;3.70;;;;;;;-146.64;100.00;118402.03;4988962;28;20113;-77
2022/06/28 04:48:15;;;;;;;15.53;4.80;;;;;;;-146.64;100.00;118402.03;4987747;28;20504;-76
2022/06/28 04:50:40;;;;;;;14.80;3.83;;;;;;;-146.64;100.00;118402.03;4999337;28;20516;-76
2022/06/28 04:53:06;;;;;;;18.23;4.23;;;;;;;-146.64;100.00;118402.03;5004865;28;20029;-75
2022/06/28 04:55:31;;;;;;;17.33;3.57;;;;;;;-146.64;100.00;118402.03;4994228;28;20034;-76
2022/06/28 04:57:57;;;;;;;33.47;4.77;;;;;;;-146.64;100.00;118402.03;4989828;28;20038;-74
2022/06/28 05:00:22;;;;;;;21.30;4.63;;;;;;;-146.64;100.00;118402.03;4982108;28;20456;-75
2022/06/28 05:02:48;;;;;;;22.43;4.60;;;;;;;-146.64;100.00;118402.03;5003431;28;20034;-75
2022/06/28 05:05:13;;;;;;;16.23;3.63;;;;;;;-146.64;100.00;118399.94;4989819;28;20038;-76
2022/06/28 05:07:39;;;;;;;20.83;4.73;;;;;;;-146.64;100.00;118132.78;4993417;28;20482;-75
2022/06/28 05:10:05;;;;;;;18.70;4.10;;;;;;;-146.64;100.00;117598.47;4997293;28;20038;-75
2022/06/28 05:12:31;;;;;;;18.20;4.30;;;;;;;-146.64;100.00;116797.16;4998064;28;20438;-77
2022/06/28 05:14:56;;;;;;;18.00;4.37;;;;;;;-146.64;100.00;114928.06;4988578;28;20358;-75
2022/06/28 05:17:21;;;;;;;17.57;3.93;;;;;;;-146.64;100.00;109325.84;4990233;28;20030;-76
2022/06/28 05:19:48;;;;;;;19.80;3.80;;;;;;;-146.64;100.00;100271.94;5008520;28;20034;-75
2022/06/28 05:22:14;;;;;;;16.15;3.72;;;;;;;-146.64;100.00;82224.63;4979250;28;20548;-77
2022/06/28 05:24:39;;;;;;;18.10;3.60;;;;;;;-146.64;100.00;70061.91;5006680;28;20038;-75
2022/06/28 05:27:05;;;;;;;18.63;3.50;;;;;;;-146.64;100.00;51492.91;4995210;28;20046;-75
2022/06/28 05:29:30;;;;;;;15.73;3.23;;;;;;;-146.64;100.00;36813.09;5005858;28;20113;-76
2022/06/28 05:31:56;;;;;;;15.07;3.20;;;;;;;-146.64;100.00;35373.47;4997938;28;20478;-76
2022/06/28 05:34:21;;;;;;;13.13;3.40;;;;;;;-146.64;100.00;35393.91;4987223;28;20053;-76
2022/06/28 05:36:47;;;;;;;17.57;3.13;;;;;;;-146.64;100.00;35616.75;4985400;28;20452;-75
2022/06/28 05:39:12;;;;;;;12.03;2.77;;;;;;;-146.64;100.00;36078.88;5001843;28;20438;-76
2022/06/28 05:41:38;;;;;;;11.67;2.83;;;;;;;-146.64;100.00;35982.78;4989079;28;20030;-75
2022/06/28 05:44:04;;;;;;;13.20;3.22;;;;;;;-146.64;100.00;36391.78;4993236;28;20170;-75
2022/06/28 05:46:30;;;;;;;15.60;3.60;;;;;;;-146.64;100.00;36426.53;4988822;28;20037;-76
2022/06/28 05:48:55;;;;;;;11.90;3.10;;;;;;;-146.64;100.00;36428.59;5008734;28;20080;-76
2022/06/28 05:51:20;;;;;;;12.13;3.53;;;;;;;-146.64;100.00;36328.38;5003780;28;20057;-77
2022/06/28 05:53:46;;;;;;;17.20;3.73;;;;;;;-146.64;100.00;36534.94;5001007;28;20120;-76
2022/06/28 05:56:11;;;;;;;17.73;3.80;;;;;;;-146.64;100.00;36457.22;4988454;28;20489;-76
2022/06/28 05:58:37;;;;;;;16.80;3.70;;;;;;;-146.64;100.00;36539.03;5000519;28;20052;-75
2022/06/28 06:01:03;;;;;;;12.83;2.93;;;;;;;-146.64;100.00;36489.94;5005636;28;20076;-76
2022/06/28 06:03:28;;;;;;;;;;;;;;;-146.64;100.00;36506.31;5008486;28;20065;-76
2022/06/28 06:05:53;;;;;;;14.30;3.13;;;;;;;-146.64;100.00;36506.31;4975180;28;21223;-76
2022/06/28 06:08:19;;;;;;;20.20;3.60;;;;;;;-146.64;100.00;36440.84;4993051;28;20336;-76
2022/06/28 06:10:44;;;;;;;15.47;3.30;;;;;;;-146.64;100.00;36514.47;5003178;28;20041;-77
2022/06/28 06:13:09;;;;;;;17.47;3.83;;;;;;;-146.64;100.00;36702.63;5003781;28;20030;-75
2022/06/28 06:15:35;;;;;;;13.97;3.07;;;;;;;-146.64;100.00;36641.28;5000540;28;20460;-75
2022/06/28 06:18:00;;;;;;;15.47;3.30;;;;;;;-146.64;100.00;36514.47;4991314;28;20435;-75
2022/06/28 06:20:25;;;;;;;16.87;3.23;;;;;;;-146.64;100.00;36532.88;5002235;28;20539;-75
2022/06/28 06:22:51;;;;;;;14.50;3.37;;;;;;;-146.64;100.00;36692.41;5009862;28;20034;-76
2022/06/28 06:25:16;;;;;;;17.70;4.40;;;;;;;-146.64;99.77;36657.63;4998819;28;20038;-77
2022/06/28 06:27:43;;;;;;;16.17;3.33;;;;;;;-146.64;100.00;36579.94;4985915;28;20507;-75
2022/06/28 06:30:08;;;;;;;;;;;;;;;-146.64;100.00;36618.78;4999506;28;20295;-76
2022/06/28 06:32:33;;;;;;;15.82;3.17;;;;;;;-146.64;100.00;36690.38;5006726;28;20020;-76
2022/06/28 06:34:59;;;;;;;16.60;3.40;;;;;;;-146.64;99.56;36669.91;5004184;28;20022;-76
2022/06/28 06:37:24;;;;;;;13.75;3.58;;;;;;;-146.64;100.00;36534.94;5019680;28;20030;-76
2022/06/28 06:39:50;;;;;;;17.85;2.90;;;;;;;-146.64;98.93;36522.66;5013482;28;20030;-76
2022/06/28 06:42:15;;;;;;;22.27;4.70;;;;;;;-146.64;100.00;36553.34;4989067;28;20057;-77
2022/06/28 06:44:40;;;;;;;17.90;3.73;;;;;;;-146.64;100.00;36614.69;4992641;28;20634;-77
2022/06/28 06:47:06;;;;;;;19.70;3.53;;;;;;;-146.64;99.22;36622.88;5004075;28;20034;-77
2022/06/28 06:49:31;;;;;;;17.27;3.92;;;;;;;-146.64;99.85;36399.94;5006668;28;20417;-76
2022/06/28 06:51:56;;;;;;;15.17;3.40;;;;;;;-146.64;97.37;36651.50;5020164;28;20026;-76
2022/06/28 06:54:22;;;;;;;19.50;4.03;;;;;;;-146.64;99.31;36440.84;5000184;28;20025;-76
2022/06/28 06:56:47;;;;;;;14.60;2.83;;;;;;;-146.64;97.26;36649.47;4990418;28;20030;-75
2022/06/28 06:59:14;;;;;;;16.27;3.40;;;;;;;-146.64;92.27;36588.09;4990910;28;20434;-76
2022/06/28 07:01:40;;;;;;;15.10;3.10;;;;;;;-146.64;93.76;36451.09;4989211;28;20026;-75
2022/06/28 07:04:05;;;;;;;15.13;3.35;;;;;;;-146.64;95.04;36485.84;5008193;28;20060;-75
2022/06/28 07:06:30;;;;;;;23.13;3.53;;;;;;;-146.64;95.18;36764.00;5008963;28;20049;-76
2022/06/28 07:08:56;;;;;;;12.10;2.60;;;;;;;-146.64;94.25;36604.47;5009372;28;20042;-75
2022/06/28 07:11:21;;;;;;;13.47;3.00;;;;;;;-146.64;92.75;36506.31;5004624;28;20022;-77
2022/06/28 07:13:46;;;;;;;19.27;3.40;;;;;;;-146.64;90.58;36682.19;4991141;28;20038;-77
2022/06/28 07:16:12;;;;;;;11.90;2.90;;;;;;;-146.64;88.58;36751.72;4998751;28;20034;-76
2022/06/28 07:18:37;;;;;;;9.43;2.70;;;;;;;-146.64;90.33;36692.41;4993115;28;20038;-76
2022/06/28 07:21:03;;;;;;;18.87;3.30;;;;;;;-146.64;88.64;36698.53;5008392;28;20041;-76
2022/06/28 07:23:28;;;;;;;17.50;3.10;;;;;;;-146.64;86.36;36612.66;5003517;28;20029;-76
2022/06/28 07:25:53;;;;;;;14.23;2.87;;;;;;;-146.64;87.21;36676.06;5001337;28;20042;-76
2022/06/28 07:28:19;;;;;;;23.20;2.73;;;;;;;-146.64;90.63;36776.25;4992222;28;20474;-75
2022/06/28 07:30:44;;;;;;;10.30;2.63;;;;;;;-146.64;90.00;36941.94;4996969;28;20038;-77
2022/06/28 07:33:10;;;;;;;17.20;3.33;;;;;;;-146.64;88.91;36735.38;5009509;28;20033;-75
2022/06/28 07:35:36;;;;;;;14.48;3.38;;;;;;;-146.64;88.76;36567.66;5007580;28;20163;-76
2022/06/28 07:38:01;;;;;;;15.00;3.10;;;;;;;-146.64;87.42;36712.88;5008970;28;20034;-77
2022/06/28 07:40:27;;;;;;;15.97;3.27;;;;;;;-146.64;85.86;36727.19;5005141;28;20030;-77
2022/06/28 07:42:52;;;;;;;13.40;3.33;;;;;;;-146.64;87.54;36845.81;4999212;28;20065;-77
2022/06/28 07:45:17;;;;;;;19.87;4.07;;;;;;;-146.64;87.80;36596.28;4995893;28;20160;-76
2022/06/28 07:47:47;;;;;;;15.20;3.47;;;;;;;-146.64;88.03;36712.88;4995722;28;21332;-76
2022/06/28 07:53:02;;;;;;;11.90;2.40;;;;;;;-146.64;88.69;36721.03;5001806;28;20165;-75
2022/06/28 07:55:29;;;;;;;9.93;2.65;;;;;;;-146.64;90.48;36694.47;5013626;28;20061;-76
2022/06/28 07:57:55;;;;;;;;;;;;;;;-146.64;88.40;36612.66;5000668;28;20037;-75
2022/06/28 08:00:21;;;;;;;11.95;2.30;;;;;;;-146.64;90.50;36939.88;5008343;28;19929;-76
2022/06/28 08:02:47;;;;;;;12.15;2.95;;;;;;;-146.64;90.25;36993.06;5003608;28;20034;-75
2022/06/28 08:05:13;;;;;;;14.48;3.15;;;;;;;-146.64;93.84;37087.16;4996434;28;20201;-76
2022/06/28 08:07:38;;;;;;;14.77;3.43;;;;;;;-146.64;90.19;37164.88;4991627;28;20029;-76
2022/06/28 08:10:05;;;;;;;15.80;4.10;;;;;;;-146.64;91.82;36964.44;5007616;28;20275;-75
2022/06/28 08:12:30;;;;;;;11.45;2.60;;;;;;;-146.64;89.74;36995.13;5000079;28;20037;-76
2022/06/28 08:14:55;;;;;;;15.10;2.50;;;;;;;-146.64;91.31;37258.97;5006835;28;20042;-75
2022/06/28 08:17:21;;;;;;;15.70;2.67;;;;;;;-146.64;91.88;36958.31;5007986;28;20485;-76
2022/06/28 08:19:46;;;;;;;10.43;2.90;;;;;;;-146.64;90.90;37046.25;4988017;28;20390;-76
2022/06/28 08:22:12;;;;;;;15.70;3.03;;;;;;;-146.64;90.96;36929.66;4992435;28;20052;-76
2022/06/28 08:24:37;;;;;;;12.93;3.00;;;;;;;-146.64;90.27;36999.22;4999257;28;20034;-76
2022/06/28 08:27:03;;;;;;;14.40;2.40;;;;;;;-146.64;89.15;36935.81;4997962;28;20034;-76
2022/06/28 08:29:30;;;;;;;6.85;1.98;;;;;;;-146.64;87.77;36995.13;5006738;28;20387;-76
2022/06/28 08:31:56;;;;;;;19.52;2.95;;;;;;;-146.64;88.75;37007.38;4995048;28;20081;-76
2022/06/28 08:34:21;;;;;;;15.27;3.00;;;;;;;-146.64;84.98;36970.56;4996065;28;20054;-77
2022/06/28 08:36:47;;;;;;;9.07;2.17;;;;;;;-146.64;81.55;37046.25;5009503;28;20092;-76
2022/06/28 08:39:12;;;;;;;5.60;1.57;;;;;;;-146.64;81.54;37156.72;5005087;28;20026;-78
2022/06/28 08:41:40;;;;;;;8.50;2.07;;;;;;;-146.64;81.98;37070.78;5004591;28;20036;-76
2022/06/28 08:44:05;;;;;;;6.00;2.13;;;;;;;-146.64;82.23;37201.72;4997866;28;20062;-76
2022/06/28 08:46:34;;;;;;;21.33;2.50;;;;;;;-146.64;78.31;37181.25;4991126;28;20458;-77
2022/06/28 08:49:03;;;;;;;13.45;2.30;;;;;;;-146.64;81.21;37081.03;5003032;28;20032;-78
2022/06/28 08:51:31;;;;;;;11.20;2.00;;;;;;;-146.64;79.68;37103.53;4989132;28;20371;-76
2022/06/28 08:54:01;;;;;;;11.02;2.33;;;;;;;-146.64;80.04;37312.16;4993844;28;20113;-76
2022/06/28 08:56:27;;;;;;;10.40;2.20;;;;;;;-146.64;79.74;37173.06;4979896;28;20509;-75
2022/06/28 08:58:53;;;;;;;8.38;2.35;;;;;;;-146.64;80.04;37083.06;4988321;28;20032;-76
2022/06/28 09:01:18;;;;;;;9.93;2.33;;;;;;;-146.64;81.94;37111.72;5019953;28;20058;-76
2022/06/28 09:03:47;;;;;;;10.90;2.27;;;;;;;-146.64;80.25;36952.16;4992724;28;20109;-76
2022/06/28 09:06:13;;;;;;;12.32;2.20;;;;;;;-146.64;77.22;36937.84;4993835;28;20030;-76
2022/06/28 09:08:40;;;;;;;12.77;2.00;;;;;;;-146.64;76.08;36923.53;5004196;28;20500;-76
2022/06/28 09:11:05;;;;;;;6.10;2.05;;;;;;;-146.64;76.79;36915.34;5005053;28;20489;-76
2022/06/28 09:13:35;;;;;;;11.37;2.67;;;;;;;-146.64;74.33;37099.44;5008356;28;20033;-76
2022/06/28 09:16:02;;;;;;;10.52;1.83;;;;;;;-146.64;72.46;37042.16;4991715;28;20044;-76
2022/06/28 09:18:36;;;;;;;8.38;2.25;;;;;;;-146.64;69.79;37140.34;5001943;28;20033;-75
2022/06/28 09:21:04;;;;;;;11.30;2.15;;;;;;;-146.64;71.85;37078.97;5004728;28;20034;-75
2022/06/28 09:23:33;;;;;;;11.18;2.10;;;;;;;-146.64;70.17;36931.72;5000526;28;20481;-78
2022/06/28 09:26:07;;;;;;;8.82;2.08;;;;;;;-146.64;71.08;36993.06;4990360;28;20076;-76
2022/06/28 09:28:35;;;;;;;9.32;2.08;;;;;;;-146.64;70.09;36909.22;4991517;28;20042;-76
2022/06/28 09:31:26;;;;;;;9.27;1.75;;;;;;;-146.64;72.32;36831.50;5005268;28;20038;-76
2022/06/28 09:34:01;;;;;;;7.05;1.88;;;;;;;-146.64;69.80;36749.69;4996247;28;20061;-76
2022/06/28 09:36:27;;;;;;;5.95;1.50;;;;;;;-146.64;66.00;36788.53;4997617;28;20033;-76
2022/06/28 09:38:57;;;;;;;;;;;;;;;-146.64;63.26;36851.94;5003698;28;20540;-77
2022/06/28 09:41:27;;;;;;;5.07;1.40;;;;;;;-146.64;65.54;36976.72;5023869;28;19921;-77
2022/06/28 09:43:57;;;;;;;10.35;1.77;;;;;;;-146.64;61.13;36988.97;5007045;28;20108;-77
2022/06/28 09:46:26;;;;;;;10.35;1.50;;;;;;;-146.64;63.79;36870.34;5012105;28;20026;-77
2022/06/28 09:48:56;;;;;;;8.80;1.58;;;;;;;-146.64;65.61;36845.81;4990239;28;20047;-76
2022/06/28 09:51:23;;;;;;;8.07;2.05;;;;;;;-146.64;64.22;36993.06;4994538;28;20521;-77
2022/06/28 09:53:52;;;;;;;10.23;2.55;;;;;;;-146.64;64.84;36870.34;4988165;28;20442;-76
2022/06/28 09:56:18;;;;;;;5.90;1.80;;;;;;;-146.64;62.71;37007.38;4988989;28;20038;-75
2022/06/28 09:58:43;;;;;;;9.77;2.00;;;;;;;-146.64;64.43;36956.25;5004123;28;20034;-76
2022/06/28 10:01:09;;;;;;;7.23;1.40;;;;;;;-146.64;63.00;36935.81;5009301;28;20030;-76
2022/06/28 10:03:34;;;;;;;10.00;1.80;;;;;;;-146.64;61.05;36858.06;5008209;28;20105;-76
2022/06/28 10:06:01;;;;;;;7.57;1.73;;;;;;;-146.64;59.87;36862.16;4986857;28;20026;-77
2022/06/28 10:08:27;;;;;;;3.70;1.35;;;;;;;-146.64;59.64;36831.50;4996749;28;20106;-77
2022/06/28 10:10:52;;;;;;;11.00;1.55;;;;;;;-146.64;60.39;36716.94;5007661;28;20113;-76
2022/06/28 10:16:19;;;;;;;9.13;1.63;;;;;;;-146.64;59.53;36526.75;5006324;28;20053;-75
2022/06/28 10:18:45;;;;;;;9.55;1.85;;;;;;;-146.64;57.67;36616.75;5008062;28;20500;-75
2022/06/28 10:21:10;;;;;;;11.13;1.55;;;;;;;-146.64;56.22;36714.91;5009289;28;20190;-75
2022/06/28 10:23:40;;;;;;;4.50;1.20;;;;;;;-146.64;55.69;36674.00;4996227;28;20038;-75
2022/06/28 10:26:14;;;;;;;5.45;1.48;;;;;;;-146.64;53.84;36804.91;4973745;28;20067;-75
2022/06/28 10:28:40;;;;;;;4.93;1.17;;;;;;;-146.64;54.33;36629.00;4989308;28;20093;-76
2022/06/28 10:31:20;;;;;;;6.83;2.40;;;;;;;-146.64;55.06;36516.53;4989511;28;20124;-75
2022/06/28 10:33:46;;;;;;;5.22;1.73;;;;;;;-146.64;54.29;36579.94;4990801;28;20041;-78
2022/06/28 10:36:13;;;;;;;5.80;1.20;;;;;;;-146.64;53.02;36559.47;4989486;28;20409;-76
2022/06/28 10:38:38;;;;;;;3.70;1.00;;;;;;;-146.64;53.18;36498.13;4990809;28;20039;-76
2022/06/28 10:41:12;;;;;;;6.97;1.27;;;;;;;-146.64;53.70;36391.78;5003029;28;20388;-76
2022/06/28 10:43:44;;;;;;;3.65;1.05;;;;;;;-146.64;52.03;36453.13;4972864;28;20038;-78
2022/06/28 10:46:10;;;;;;;4.93;1.50;;;;;;;-146.64;50.57;36449.03;4998456;28;20084;-75
2022/06/28 10:48:48;;;;;;;5.35;1.60;;;;;;;-146.64;50.46;36518.56;5012025;28;20037;-76
2022/06/28 10:51:13;;;;;;;4.72;1.13;;;;;;;-146.64;53.07;36318.16;5018455;28;20030;-77
2022/06/28 10:53:57;;;;;;;5.80;1.10;;;;;;;-146.64;51.80;36230.22;5008580;28;20037;-76
2022/06/28 10:56:24;;;;;;;7.75;1.60;;;;;;;-146.64;51.01;36303.84;5006510;28;20036;-77
2022/06/28 10:59:07;;;;;;;4.05;1.27;;;;;;;-146.64;51.58;36205.69;4972835;28;20493;-76
2022/06/28 11:01:38;;;;;;;4.28;1.50;;;;;;;-146.64;52.54;36293.59;4988944;28;20045;-76
2022/06/28 11:04:11;;;;;;;3.28;1.08;;;;;;;-146.64;50.63;36238.41;4990344;28;20371;-76
2022/06/28 11:06:46;;;;;;;4.93;1.50;;;;;;;-146.64;51.35;36359.06;4990022;28;20035;-76
2022/06/28 11:09:53;;;;;;;4.40;1.60;;;;;;;-146.64;51.38;36260.88;4990332;28;20026;-76
2022/06/28 11:12:19;;;;;;;7.53;1.25;;;;;;;-146.64;52.20;36309.97;4895333;29;20166;-78